sensor_id;sensor_type;location;lat;lon;timestamp;P1;durP1;ratioP1;P2;durP2;ratioP2
51146;SDS011;37207;53.060;18.726;2023-02-02T00:01:58;13.20;;;7.20;;
51146;SDS011;37207;53.060;18.726;2023-02-02T00:04:31;12.90;;;5.20;;
51146;SDS011;37207;53.060;18.726;2023-02-02T00:06:59;16.30;;;9.50;;
51146;SDS011;37207;53.060;18.726;2023-02-02T00:09:28;17.20;;;7.70;;
51146;SDS011;37207;53.060;18.726;2023-02-02T00:14:23;22.60;;;5.90;;
51146;SDS011;37207;53.060;18.726;2023-02-02T00:16:51;14.80;;;4.80;;
51146;SDS011;37207;53.060;18.726;2023-02-02T00:19:20;13.50;;;3.50;;
51146;SDS011;37207;53.060;18.726;2023-02-02T00:21:52;14.10;;;6.50;;
51146;SDS011;37207;53.060;18.726;2023-02-02T00:24:20;13.00;;;4.90;;
51146;SDS011;37207;53.060;18.726;2023-02-02T00:26:51;96.80;;;53.00;;
51146;SDS011;37207;53.060;18.726;2023-02-02T00:29:21;125.20;;;78.90;;
51146;SDS011;37207;53.060;18.726;2023-02-02T00:31:50;64.70;;;30.10;;
51146;SDS011;37207;53.060;18.726;2023-02-02T00:34:17;88.30;;;23.20;;
51146;SDS011;37207;53.060;18.726;2023-02-02T00:36:46;91.20;;;37.60;;
51146;SDS011;37207;53.060;18.726;2023-02-02T00:39:15;68.80;;;30.00;;
51146;SDS011;37207;53.060;18.726;2023-02-02T00:41:44;30.50;;;14.40;;
51146;SDS011;37207;53.060;18.726;2023-02-02T00:44:11;39.70;;;12.20;;
51146;SDS011;37207;53.060;18.726;2023-02-02T00:46:57;32.10;;;7.40;;
51146;SDS011;37207;53.060;18.726;2023-02-02T00:49:24;23.00;;;8.90;;
51146;SDS011;37207;53.060;18.726;2023-02-02T00:51:50;19.70;;;9.20;;
51146;SDS011;37207;53.060;18.726;2023-02-02T00:54:17;25.80;;;8.80;;
51146;SDS011;37207;53.060;18.726;2023-02-02T00:56:43;18.10;;;6.70;;
51146;SDS011;37207;53.060;18.726;2023-02-02T00:59:11;22.60;;;8.10;;
51146;SDS011;37207;53.060;18.726;2023-02-02T01:01:38;23.80;;;7.20;;
51146;SDS011;37207;53.060;18.726;2023-02-02T01:04:04;22.00;;;7.00;;
51146;SDS011;37207;53.060;18.726;2023-02-02T01:06:31;32.10;;;13.70;;
51146;SDS011;37207;53.060;18.726;2023-02-02T01:08:58;28.60;;;14.40;;
51146;SDS011;37207;53.060;18.726;2023-02-02T01:11:24;22.70;;;9.80;;
51146;SDS011;37207;53.060;18.726;2023-02-02T01:13:51;20.80;;;9.50;;
51146;SDS011;37207;53.060;18.726;2023-02-02T01:16:17;23.20;;;10.70;;
51146;SDS011;37207;53.060;18.726;2023-02-02T01:18:47;18.00;;;7.90;;
51146;SDS011;37207;53.060;18.726;2023-02-02T01:21:14;21.60;;;3.70;;
51146;SDS011;37207;53.060;18.726;2023-02-02T01:23:41;22.60;;;7.00;;
51146;SDS011;37207;53.060;18.726;2023-02-02T01:26:08;18.10;;;7.70;;
51146;SDS011;37207;53.060;18.726;2023-02-02T01:28:36;20.80;;;7.10;;
51146;SDS011;37207;53.060;18.726;2023-02-02T01:31:15;19.10;;;3.50;;
51146;SDS011;37207;53.060;18.726;2023-02-02T01:33:44;14.60;;;2.80;;
51146;SDS011;37207;53.060;18.726;2023-02-02T01:36:13;19.60;;;5.30;;
51146;SDS011;37207;53.060;18.726;2023-02-02T01:38:42;16.40;;;7.80;;
51146;SDS011;37207;53.060;18.726;2023-02-02T01:41:13;18.80;;;7.40;;
51146;SDS011;37207;53.060;18.726;2023-02-02T01:46:13;29.80;;;12.80;;
51146;SDS011;37207;53.060;18.726;2023-02-02T01:48:43;36.90;;;13.80;;
51146;SDS011;37207;53.060;18.726;2023-02-02T01:51:25;25.40;;;13.00;;
51146;SDS011;37207;53.060;18.726;2023-02-02T01:53:56;25.90;;;13.10;;
51146;SDS011;37207;53.060;18.726;2023-02-02T01:56:26;15.30;;;4.10;;
51146;SDS011;37207;53.060;18.726;2023-02-02T01:58:58;22.60;;;9.60;;
51146;SDS011;37207;53.060;18.726;2023-02-02T02:01:25;20.60;;;9.90;;
51146;SDS011;37207;53.060;18.726;2023-02-02T02:03:52;27.80;;;9.30;;
51146;SDS011;37207;53.060;18.726;2023-02-02T02:06:21;20.60;;;4.50;;
51146;SDS011;37207;53.060;18.726;2023-02-02T02:08:58;33.00;;;11.70;;
51146;SDS011;37207;53.060;18.726;2023-02-02T02:11:29;23.20;;;11.90;;
51146;SDS011;37207;53.060;18.726;2023-02-02T02:13:57;16.50;;;5.70;;
51146;SDS011;37207;53.060;18.726;2023-02-02T02:22:06;25.80;;;6.00;;
51146;SDS011;37207;53.060;18.726;2023-02-02T02:33:27;20.80;;;6.80;;
51146;SDS011;37207;53.060;18.726;2023-02-02T02:36:49;20.90;;;6.50;;
51146;SDS011;37207;53.060;18.726;2023-02-02T02:39:22;17.70;;;6.10;;
51146;SDS011;37207;53.060;18.726;2023-02-02T02:41:55;12.50;;;2.90;;
51146;SDS011;37207;53.060;18.726;2023-02-02T02:44:25;13.90;;;2.70;;
51146;SDS011;37207;53.060;18.726;2023-02-02T02:46:55;23.10;;;7.70;;
51146;SDS011;37207;53.060;18.726;2023-02-02T02:49:23;21.80;;;7.50;;
51146;SDS011;37207;53.060;18.726;2023-02-02T02:51:50;21.30;;;6.00;;
51146;SDS011;37207;53.060;18.726;2023-02-02T02:54:32;20.70;;;5.20;;
51146;SDS011;37207;53.060;18.726;2023-02-02T03:05:19;12.30;;;2.40;;
51146;SDS011;37207;53.060;18.726;2023-02-02T03:08:00;4.80;;;1.80;;
51146;SDS011;37207;53.060;18.726;2023-02-02T03:10:34;21.60;;;6.60;;
51146;SDS011;37207;53.060;18.726;2023-02-02T03:13:07;25.60;;;8.50;;
51146;SDS011;37207;53.060;18.726;2023-02-02T03:15:35;31.00;;;8.30;;
51146;SDS011;37207;53.060;18.726;2023-02-02T03:18:05;20.70;;;7.70;;
51146;SDS011;37207;53.060;18.726;2023-02-02T03:20:32;22.70;;;8.10;;
51146;SDS011;37207;53.060;18.726;2023-02-02T03:22:59;26.80;;;8.10;;
51146;SDS011;37207;53.060;18.726;2023-02-02T03:25:26;21.40;;;8.40;;
51146;SDS011;37207;53.060;18.726;2023-02-02T03:27:52;24.20;;;7.40;;
51146;SDS011;37207;53.060;18.726;2023-02-02T03:30:19;23.20;;;7.20;;
51146;SDS011;37207;53.060;18.726;2023-02-02T03:32:47;25.00;;;3.10;;
51146;SDS011;37207;53.060;18.726;2023-02-02T03:35:15;15.40;;;2.70;;
51146;SDS011;37207;53.060;18.726;2023-02-02T03:37:42;21.60;;;5.50;;
51146;SDS011;37207;53.060;18.726;2023-02-02T03:40:09;19.60;;;6.10;;
51146;SDS011;37207;53.060;18.726;2023-02-02T03:42:36;13.20;;;4.80;;
51146;SDS011;37207;53.060;18.726;2023-02-02T03:45:03;18.20;;;4.70;;
51146;SDS011;37207;53.060;18.726;2023-02-02T03:47:30;18.90;;;5.30;;
51146;SDS011;37207;53.060;18.726;2023-02-02T03:49:56;16.40;;;5.20;;
51146;SDS011;37207;53.060;18.726;2023-02-02T03:52:23;18.40;;;5.10;;
51146;SDS011;37207;53.060;18.726;2023-02-02T03:54:50;6.50;;;2.50;;
51146;SDS011;37207;53.060;18.726;2023-02-02T03:57:17;12.50;;;2.50;;
51146;SDS011;37207;53.060;18.726;2023-02-02T03:59:44;19.20;;;6.00;;
51146;SDS011;37207;53.060;18.726;2023-02-02T04:02:10;12.90;;;5.60;;
51146;SDS011;37207;53.060;18.726;2023-02-02T04:04:37;21.00;;;5.60;;
51146;SDS011;37207;53.060;18.726;2023-02-02T04:07:04;15.70;;;5.20;;
51146;SDS011;37207;53.060;18.726;2023-02-02T04:09:30;19.60;;;6.00;;
51146;SDS011;37207;53.060;18.726;2023-02-02T04:11:58;18.20;;;5.70;;
51146;SDS011;37207;53.060;18.726;2023-02-02T04:14:25;14.40;;;2.80;;
51146;SDS011;37207;53.060;18.726;2023-02-02T04:16:51;22.30;;;5.60;;
51146;SDS011;37207;53.060;18.726;2023-02-02T04:19:18;11.30;;;4.60;;
51146;SDS011;37207;53.060;18.726;2023-02-02T04:21:44;8.10;;;2.20;;
51146;SDS011;37207;53.060;18.726;2023-02-02T04:24:11;10.30;;;3.10;;
51146;SDS011;37207;53.060;18.726;2023-02-02T04:26:39;10.70;;;2.90;;
51146;SDS011;37207;53.060;18.726;2023-02-02T04:29:07;17.30;;;5.60;;
51146;SDS011;37207;53.060;18.726;2023-02-02T04:31:33;15.90;;;5.90;;
51146;SDS011;37207;53.060;18.726;2023-02-02T04:34:00;13.00;;;5.60;;
51146;SDS011;37207;53.060;18.726;2023-02-02T04:36:27;13.30;;;3.20;;
51146;SDS011;37207;53.060;18.726;2023-02-02T04:38:54;9.60;;;2.70;;
51146;SDS011;37207;53.060;18.726;2023-02-02T04:41:21;9.10;;;3.20;;
51146;SDS011;37207;53.060;18.726;2023-02-02T04:43:48;20.60;;;7.40;;
51146;SDS011;37207;53.060;18.726;2023-02-02T04:46:14;26.00;;;9.50;;
51146;SDS011;37207;53.060;18.726;2023-02-02T04:48:41;19.40;;;9.10;;
51146;SDS011;37207;53.060;18.726;2023-02-02T04:51:09;11.20;;;8.00;;
51146;SDS011;37207;53.060;18.726;2023-02-02T04:53:39;11.80;;;5.40;;
51146;SDS011;37207;53.060;18.726;2023-02-02T04:56:08;14.90;;;5.80;;
51146;SDS011;37207;53.060;18.726;2023-02-02T04:58:37;17.20;;;7.40;;
51146;SDS011;37207;53.060;18.726;2023-02-02T05:01:09;24.10;;;6.50;;
51146;SDS011;37207;53.060;18.726;2023-02-02T05:03:40;9.50;;;6.50;;
51146;SDS011;37207;53.060;18.726;2023-02-02T05:06:07;27.50;;;14.40;;
51146;SDS011;37207;53.060;18.726;2023-02-02T05:08:34;26.10;;;16.00;;
51146;SDS011;37207;53.060;18.726;2023-02-02T05:11:15;32.90;;;19.50;;
51146;SDS011;37207;53.060;18.726;2023-02-02T05:13:45;22.60;;;9.90;;
51146;SDS011;37207;53.060;18.726;2023-02-02T05:18:40;15.70;;;9.20;;
51146;SDS011;37207;53.060;18.726;2023-02-02T05:21:08;9.60;;;8.80;;
51146;SDS011;37207;53.060;18.726;2023-02-02T05:23:35;12.50;;;8.30;;
51146;SDS011;37207;53.060;18.726;2023-02-02T05:26:02;24.70;;;12.60;;
51146;SDS011;37207;53.060;18.726;2023-02-02T05:28:28;17.80;;;8.80;;
51146;SDS011;37207;53.060;18.726;2023-02-02T05:30:55;21.00;;;13.90;;
51146;SDS011;37207;53.060;18.726;2023-02-02T05:33:22;13.80;;;11.30;;
51146;SDS011;37207;53.060;18.726;2023-02-02T05:35:49;13.70;;;6.70;;
51146;SDS011;37207;53.060;18.726;2023-02-02T05:38:15;12.20;;;10.50;;
51146;SDS011;37207;53.060;18.726;2023-02-02T05:40:42;14.90;;;8.00;;
51146;SDS011;37207;53.060;18.726;2023-02-02T05:43:09;12.40;;;8.60;;
51146;SDS011;37207;53.060;18.726;2023-02-02T05:45:35;12.00;;;7.50;;
51146;SDS011;37207;53.060;18.726;2023-02-02T05:48:02;40.50;;;23.60;;
51146;SDS011;37207;53.060;18.726;2023-02-02T05:50:28;56.80;;;31.50;;
51146;SDS011;37207;53.060;18.726;2023-02-02T05:53:01;22.30;;;15.40;;
51146;SDS011;37207;53.060;18.726;2023-02-02T05:55:28;20.70;;;18.40;;
51146;SDS011;37207;53.060;18.726;2023-02-02T05:57:55;43.40;;;20.40;;
51146;SDS011;37207;53.060;18.726;2023-02-02T06:00:21;35.10;;;16.00;;
51146;SDS011;37207;53.060;18.726;2023-02-02T06:02:48;18.20;;;13.40;;
51146;SDS011;37207;53.060;18.726;2023-02-02T06:05:14;22.60;;;12.90;;
51146;SDS011;37207;53.060;18.726;2023-02-02T06:07:41;24.60;;;22.10;;
51146;SDS011;37207;53.060;18.726;2023-02-02T06:10:08;20.70;;;18.60;;
51146;SDS011;37207;53.060;18.726;2023-02-02T06:12:35;16.10;;;14.70;;
51146;SDS011;37207;53.060;18.726;2023-02-02T06:15:01;8.80;;;7.60;;
51146;SDS011;37207;53.060;18.726;2023-02-02T06:17:28;8.10;;;7.30;;
51146;SDS011;37207;53.060;18.726;2023-02-02T06:19:54;6.60;;;4.20;;
51146;SDS011;37207;53.060;18.726;2023-02-02T06:22:21;5.80;;;4.00;;
51146;SDS011;37207;53.060;18.726;2023-02-02T06:24:48;5.80;;;5.30;;
51146;SDS011;37207;53.060;18.726;2023-02-02T06:27:14;6.80;;;6.00;;
51146;SDS011;37207;53.060;18.726;2023-02-02T06:29:41;7.60;;;6.80;;
51146;SDS011;37207;53.060;18.726;2023-02-02T06:32:07;5.60;;;2.90;;
51146;SDS011;37207;53.060;18.726;2023-02-02T06:34:34;5.30;;;3.40;;
51146;SDS011;37207;53.060;18.726;2023-02-02T06:37:00;6.70;;;5.90;;
51146;SDS011;37207;53.060;18.726;2023-02-02T06:39:27;7.20;;;6.50;;
51146;SDS011;37207;53.060;18.726;2023-02-02T06:41:54;6.70;;;5.70;;
51146;SDS011;37207;53.060;18.726;2023-02-02T06:44:20;4.70;;;2.40;;
51146;SDS011;37207;53.060;18.726;2023-02-02T06:46:47;3.10;;;2.40;;
51146;SDS011;37207;53.060;18.726;2023-02-02T06:49:13;2.40;;;1.90;;
51146;SDS011;37207;53.060;18.726;2023-02-02T06:51:40;3.70;;;3.30;;
51146;SDS011;37207;53.060;18.726;2023-02-02T06:54:07;5.80;;;5.30;;
51146;SDS011;37207;53.060;18.726;2023-02-02T06:56:33;5.80;;;5.30;;
51146;SDS011;37207;53.060;18.726;2023-02-02T06:59:00;6.00;;;5.50;;
51146;SDS011;37207;53.060;18.726;2023-02-02T07:01:26;7.40;;;3.80;;
51146;SDS011;37207;53.060;18.726;2023-02-02T07:03:53;4.50;;;3.90;;
51146;SDS011;37207;53.060;18.726;2023-02-02T07:06:21;3.60;;;2.90;;
51146;SDS011;37207;53.060;18.726;2023-02-02T07:08:50;6.80;;;3.20;;
51146;SDS011;37207;53.060;18.726;2023-02-02T07:11:17;5.10;;;4.70;;
51146;SDS011;37207;53.060;18.726;2023-02-02T07:13:45;4.80;;;4.40;;
51146;SDS011;37207;53.060;18.726;2023-02-02T07:16:13;7.10;;;2.30;;
51146;SDS011;37207;53.060;18.726;2023-02-02T07:18:40;4.60;;;4.20;;
51146;SDS011;37207;53.060;18.726;2023-02-02T07:21:14;4.70;;;4.30;;
51146;SDS011;37207;53.060;18.726;2023-02-02T07:23:43;3.00;;;2.70;;
51146;SDS011;37207;53.060;18.726;2023-02-02T07:26:10;4.70;;;4.30;;
51146;SDS011;37207;53.060;18.726;2023-02-02T07:28:37;2.40;;;2.20;;
51146;SDS011;37207;53.060;18.726;2023-02-02T07:31:15;3.80;;;2.40;;
51146;SDS011;37207;53.060;18.726;2023-02-02T07:33:44;4.90;;;2.90;;
51146;SDS011;37207;53.060;18.726;2023-02-02T07:36:12;3.90;;;1.80;;
51146;SDS011;37207;53.060;18.726;2023-02-02T07:38:42;4.50;;;4.10;;
51146;SDS011;37207;53.060;18.726;2023-02-02T07:41:09;4.50;;;3.30;;
51146;SDS011;37207;53.060;18.726;2023-02-02T07:43:36;6.10;;;5.60;;
51146;SDS011;37207;53.060;18.726;2023-02-02T07:46:04;14.70;;;13.20;;
51146;SDS011;37207;53.060;18.726;2023-02-02T07:48:33;15.70;;;14.10;;
51146;SDS011;37207;53.060;18.726;2023-02-02T07:51:02;11.10;;;9.60;;
51146;SDS011;37207;53.060;18.726;2023-02-02T07:53:31;15.60;;;12.50;;
51146;SDS011;37207;53.060;18.726;2023-02-02T07:56:41;11.20;;;4.70;;
51146;SDS011;37207;53.060;18.726;2023-02-02T07:58:50;13.70;;;10.80;;
51146;SDS011;37207;53.060;18.726;2023-02-02T08:01:18;9.10;;;3.60;;
51146;SDS011;37207;53.060;18.726;2023-02-02T08:03:48;9.00;;;5.90;;
51146;SDS011;37207;53.060;18.726;2023-02-02T08:06:20;14.10;;;12.30;;
51146;SDS011;37207;53.060;18.726;2023-02-02T08:08:51;17.80;;;13.00;;
51146;SDS011;37207;53.060;18.726;2023-02-02T08:11:18;8.40;;;7.60;;
51146;SDS011;37207;53.060;18.726;2023-02-02T08:13:47;8.80;;;8.00;;
51146;SDS011;37207;53.060;18.726;2023-02-02T08:16:15;7.20;;;3.80;;
51146;SDS011;37207;53.060;18.726;2023-02-02T08:18:42;13.10;;;11.50;;
51146;SDS011;37207;53.060;18.726;2023-02-02T08:21:09;11.50;;;10.30;;
51146;SDS011;37207;53.060;18.726;2023-02-02T08:23:37;16.30;;;6.60;;
51146;SDS011;37207;53.060;18.726;2023-02-02T08:26:09;12.40;;;5.80;;
51146;SDS011;37207;53.060;18.726;2023-02-02T08:28:37;9.50;;;6.30;;
51146;SDS011;37207;53.060;18.726;2023-02-02T08:31:06;12.40;;;6.40;;
51146;SDS011;37207;53.060;18.726;2023-02-02T08:36:15;7.00;;;3.50;;
51146;SDS011;37207;53.060;18.726;2023-02-02T08:38:44;10.70;;;5.20;;
51146;SDS011;37207;53.060;18.726;2023-02-02T08:41:13;10.20;;;5.70;;
51146;SDS011;37207;53.060;18.726;2023-02-02T08:43:41;7.30;;;6.70;;
51146;SDS011;37207;53.060;18.726;2023-02-02T08:46:09;6.10;;;5.50;;
51146;SDS011;37207;53.060;18.726;2023-02-02T08:48:37;7.00;;;6.50;;
51146;SDS011;37207;53.060;18.726;2023-02-02T08:51:05;8.90;;;8.00;;
51146;SDS011;37207;53.060;18.726;2023-02-02T08:53:33;7.40;;;5.00;;
51146;SDS011;37207;53.060;18.726;2023-02-02T08:56:01;8.00;;;7.30;;
51146;SDS011;37207;53.060;18.726;2023-02-02T08:58:29;3.70;;;3.30;;
51146;SDS011;37207;53.060;18.726;2023-02-02T09:01:07;4.80;;;4.40;;
51146;SDS011;37207;53.060;18.726;2023-02-02T09:03:39;8.20;;;7.60;;
51146;SDS011;37207;53.060;18.726;2023-02-02T09:06:08;10.10;;;9.40;;
51146;SDS011;37207;53.060;18.726;2023-02-02T09:08:37;9.30;;;8.50;;
51146;SDS011;37207;53.060;18.726;2023-02-02T09:11:04;6.30;;;5.60;;
51146;SDS011;37207;53.060;18.726;2023-02-02T09:13:33;4.10;;;3.30;;
51146;SDS011;37207;53.060;18.726;2023-02-02T09:16:00;6.80;;;6.20;;
51146;SDS011;37207;53.060;18.726;2023-02-02T09:18:29;7.10;;;3.40;;
51146;SDS011;37207;53.060;18.726;2023-02-02T09:20:59;7.90;;;7.20;;
51146;SDS011;37207;53.060;18.726;2023-02-02T09:23:30;7.70;;;7.00;;
51146;SDS011;37207;53.060;18.726;2023-02-02T09:26:08;8.70;;;7.90;;
51146;SDS011;37207;53.060;18.726;2023-02-02T09:28:40;7.70;;;6.90;;
51146;SDS011;37207;53.060;18.726;2023-02-02T09:31:08;6.70;;;6.10;;
51146;SDS011;37207;53.060;18.726;2023-02-02T09:33:36;6.90;;;6.30;;
51146;SDS011;37207;53.060;18.726;2023-02-02T09:36:04;5.80;;;5.30;;
51146;SDS011;37207;53.060;18.726;2023-02-02T09:38:52;6.30;;;5.50;;
51146;SDS011;37207;53.060;18.726;2023-02-02T09:52:45;5.60;;;5.10;;
51146;SDS011;37207;53.060;18.726;2023-02-02T09:55:25;5.10;;;4.70;;
51146;SDS011;37207;53.060;18.726;2023-02-02T09:58:02;5.50;;;5.00;;
51146;SDS011;37207;53.060;18.726;2023-02-02T10:00:38;5.20;;;4.80;;
51146;SDS011;37207;53.060;18.726;2023-02-02T10:03:15;5.00;;;4.60;;
51146;SDS011;37207;53.060;18.726;2023-02-02T10:05:57;5.40;;;4.90;;
51146;SDS011;37207;53.060;18.726;2023-02-02T10:08:36;4.90;;;4.50;;
51146;SDS011;37207;53.060;18.726;2023-02-02T10:11:25;5.30;;;4.90;;
51146;SDS011;37207;53.060;18.726;2023-02-02T10:14:05;5.30;;;4.90;;
51146;SDS011;37207;53.060;18.726;2023-02-02T10:16:39;6.80;;;5.70;;
51146;SDS011;37207;53.060;18.726;2023-02-02T10:19:10;5.80;;;5.30;;
51146;SDS011;37207;53.060;18.726;2023-02-02T10:24:17;5.50;;;5.00;;
51146;SDS011;37207;53.060;18.726;2023-02-02T10:26:48;6.20;;;4.80;;
51146;SDS011;37207;53.060;18.726;2023-02-02T10:29:36;5.80;;;5.20;;
51146;SDS011;37207;53.060;18.726;2023-02-02T10:37:29;4.10;;;3.50;;
51146;SDS011;37207;53.060;18.726;2023-02-02T10:45:13;2.90;;;2.60;;
51146;SDS011;37207;53.060;18.726;2023-02-02T10:47:43;2.30;;;2.10;;
51146;SDS011;37207;53.060;18.726;2023-02-02T10:52:37;3.20;;;2.20;;
51146;SDS011;37207;53.060;18.726;2023-02-02T11:03:19;3.80;;;3.10;;
51146;SDS011;37207;53.060;18.726;2023-02-02T11:05:50;2.90;;;2.60;;
51146;SDS011;37207;53.060;18.726;2023-02-02T11:08:37;2.30;;;2.10;;
51146;SDS011;37207;53.060;18.726;2023-02-02T11:11:12;3.00;;;2.60;;
51146;SDS011;37207;53.060;18.726;2023-02-02T11:13:55;2.70;;;2.20;;
51146;SDS011;37207;53.060;18.726;2023-02-02T11:16:29;2.00;;;1.80;;
51146;SDS011;37207;53.060;18.726;2023-02-02T11:18:57;2.60;;;2.20;;
51146;SDS011;37207;53.060;18.726;2023-02-02T11:21:25;3.10;;;2.40;;
51146;SDS011;37207;53.060;18.726;2023-02-02T11:26:54;4.30;;;2.30;;
51146;SDS011;37207;53.060;18.726;2023-02-02T11:35:05;3.10;;;2.70;;
51146;SDS011;37207;53.060;18.726;2023-02-02T11:37:52;2.40;;;2.10;;
51146;SDS011;37207;53.060;18.726;2023-02-02T11:43:06;2.00;;;1.80;;
51146;SDS011;37207;53.060;18.726;2023-02-02T11:45:45;4.70;;;2.60;;
51146;SDS011;37207;53.060;18.726;2023-02-02T11:48:23;1.80;;;1.50;;
51146;SDS011;37207;53.060;18.726;2023-02-02T11:50:54;1.80;;;1.30;;
51146;SDS011;37207;53.060;18.726;2023-02-02T11:55:55;1.60;;;1.40;;
51146;SDS011;37207;53.060;18.726;2023-02-02T11:58:26;1.90;;;1.70;;
51146;SDS011;37207;53.060;18.726;2023-02-02T12:01:09;3.00;;;2.30;;
51146;SDS011;37207;53.060;18.726;2023-02-02T12:03:53;2.20;;;2.00;;
51146;SDS011;37207;53.060;18.726;2023-02-02T12:06:22;1.20;;;0.90;;
51146;SDS011;37207;53.060;18.726;2023-02-02T12:08:59;2.50;;;2.20;;
51146;SDS011;37207;53.060;18.726;2023-02-02T12:11:32;4.00;;;2.10;;
51146;SDS011;37207;53.060;18.726;2023-02-02T12:20:10;2.30;;;1.80;;
51146;SDS011;37207;53.060;18.726;2023-02-02T12:22:55;3.60;;;1.80;;
51146;SDS011;37207;53.060;18.726;2023-02-02T12:25:36;1.90;;;1.50;;
51146;SDS011;37207;53.060;18.726;2023-02-02T12:33:53;3.70;;;2.90;;
51146;SDS011;37207;53.060;18.726;2023-02-02T12:45:00;4.00;;;1.10;;
51146;SDS011;37207;53.060;18.726;2023-02-02T12:50:29;2.40;;;1.60;;
51146;SDS011;37207;53.060;18.726;2023-02-02T12:59:11;2.20;;;1.70;;
51146;SDS011;37207;53.060;18.726;2023-02-02T13:04:31;2.40;;;2.20;;
51146;SDS011;37207;53.060;18.726;2023-02-02T13:12:31;3.10;;;1.60;;
51146;SDS011;37207;53.060;18.726;2023-02-02T13:15:05;2.60;;;0.80;;
51146;SDS011;37207;53.060;18.726;2023-02-02T13:17:37;0.90;;;0.80;;
51146;SDS011;37207;53.060;18.726;2023-02-02T13:20:26;1.30;;;1.10;;
51146;SDS011;37207;53.060;18.726;2023-02-02T13:23:11;0.70;;;0.70;;
51146;SDS011;37207;53.060;18.726;2023-02-02T13:25:44;0.60;;;0.60;;
51146;SDS011;37207;53.060;18.726;2023-02-02T13:28:16;1.00;;;0.80;;
51146;SDS011;37207;53.060;18.726;2023-02-02T13:30:47;1.20;;;0.90;;
51146;SDS011;37207;53.060;18.726;2023-02-02T13:33:19;1.30;;;1.20;;
51146;SDS011;37207;53.060;18.726;2023-02-02T13:35:54;2.40;;;1.50;;
51146;SDS011;37207;53.060;18.726;2023-02-02T13:38:26;1.50;;;1.40;;
51146;SDS011;37207;53.060;18.726;2023-02-02T13:40:59;2.00;;;1.40;;
51146;SDS011;37207;53.060;18.726;2023-02-02T13:43:48;2.50;;;2.00;;
51146;SDS011;37207;53.060;18.726;2023-02-02T13:46:40;2.20;;;2.00;;
51146;SDS011;37207;53.060;18.726;2023-02-02T14:00:19;1.70;;;1.30;;
51146;SDS011;37207;53.060;18.726;2023-02-02T14:03:00;2.10;;;1.90;;
51146;SDS011;37207;53.060;18.726;2023-02-02T14:05:35;2.40;;;1.70;;
51146;SDS011;37207;53.060;18.726;2023-02-02T14:08:15;1.60;;;1.20;;
51146;SDS011;37207;53.060;18.726;2023-02-02T14:13:18;5.90;;;0.90;;
51146;SDS011;37207;53.060;18.726;2023-02-02T14:16:23;1.60;;;1.30;;
51146;SDS011;37207;53.060;18.726;2023-02-02T14:27:01;2.90;;;2.70;;
51146;SDS011;37207;53.060;18.726;2023-02-02T14:29:56;2.00;;;1.70;;
51146;SDS011;37207;53.060;18.726;2023-02-02T14:34:57;2.70;;;2.50;;
51146;SDS011;37207;53.060;18.726;2023-02-02T14:37:35;2.90;;;2.60;;
51146;SDS011;37207;53.060;18.726;2023-02-02T14:48:39;2.90;;;2.70;;
51146;SDS011;37207;53.060;18.726;2023-02-02T14:51:16;5.30;;;4.80;;
51146;SDS011;37207;53.060;18.726;2023-02-02T14:53:47;4.10;;;3.40;;
51146;SDS011;37207;53.060;18.726;2023-02-02T14:56:17;4.80;;;3.30;;
51146;SDS011;37207;53.060;18.726;2023-02-02T14:58:51;4.00;;;3.50;;
51146;SDS011;37207;53.060;18.726;2023-02-02T15:01:22;3.60;;;1.70;;
51146;SDS011;37207;53.060;18.726;2023-02-02T15:04:20;3.90;;;3.50;;
51146;SDS011;37207;53.060;18.726;2023-02-02T15:06:42;4.00;;;2.40;;
51146;SDS011;37207;53.060;18.726;2023-02-02T15:14:25;4.70;;;1.90;;
51146;SDS011;37207;53.060;18.726;2023-02-02T15:17:13;2.60;;;1.60;;
51146;SDS011;37207;53.060;18.726;2023-02-02T15:19:54;4.30;;;3.90;;
51146;SDS011;37207;53.060;18.726;2023-02-02T15:22:26;4.00;;;3.70;;
51146;SDS011;37207;53.060;18.726;2023-02-02T15:24:57;2.40;;;1.50;;
51146;SDS011;37207;53.060;18.726;2023-02-02T15:27:29;2.00;;;1.30;;
51146;SDS011;37207;53.060;18.726;2023-02-02T15:29:59;2.70;;;1.70;;
51146;SDS011;37207;53.060;18.726;2023-02-02T15:32:29;3.00;;;2.80;;
51146;SDS011;37207;53.060;18.726;2023-02-02T15:34:57;3.40;;;2.90;;
51146;SDS011;37207;53.060;18.726;2023-02-02T15:37:31;2.30;;;1.30;;
51146;SDS011;37207;53.060;18.726;2023-02-02T15:40:12;2.50;;;2.30;;
51146;SDS011;37207;53.060;18.726;2023-02-02T15:42:42;3.20;;;2.90;;
51146;SDS011;37207;53.060;18.726;2023-02-02T15:47:54;3.30;;;2.00;;
51146;SDS011;37207;53.060;18.726;2023-02-02T15:50:22;4.50;;;1.90;;
51146;SDS011;37207;53.060;18.726;2023-02-02T15:52:50;5.80;;;1.80;;
51146;SDS011;37207;53.060;18.726;2023-02-02T15:57:49;4.00;;;1.50;;
51146;SDS011;37207;53.060;18.726;2023-02-02T16:00:28;3.80;;;1.70;;
51146;SDS011;37207;53.060;18.726;2023-02-02T16:08:06;3.50;;;1.70;;
51146;SDS011;37207;53.060;18.726;2023-02-02T16:10:43;5.90;;;1.50;;
51146;SDS011;37207;53.060;18.726;2023-02-02T16:13:54;1.50;;;0.80;;
51146;SDS011;37207;53.060;18.726;2023-02-02T16:16:06;2.70;;;1.00;;
51146;SDS011;37207;53.060;18.726;2023-02-02T16:18:47;8.50;;;5.10;;
51146;SDS011;37207;53.060;18.726;2023-02-02T16:21:27;3.70;;;3.30;;
51146;SDS011;37207;53.060;18.726;2023-02-02T16:23:55;3.50;;;2.70;;
51146;SDS011;37207;53.060;18.726;2023-02-02T16:26:24;3.50;;;2.80;;
51146;SDS011;37207;53.060;18.726;2023-02-02T16:28:54;3.80;;;2.30;;
51146;SDS011;37207;53.060;18.726;2023-02-02T16:31:23;3.90;;;2.60;;
51146;SDS011;37207;53.060;18.726;2023-02-02T16:33:51;5.50;;;3.00;;
51146;SDS011;37207;53.060;18.726;2023-02-02T16:36:22;5.30;;;1.50;;
51146;SDS011;37207;53.060;18.726;2023-02-02T16:38:50;3.40;;;1.50;;
51146;SDS011;37207;53.060;18.726;2023-02-02T16:43:51;3.90;;;2.10;;
51146;SDS011;37207;53.060;18.726;2023-02-02T16:49:20;4.20;;;2.40;;
51146;SDS011;37207;53.060;18.726;2023-02-02T16:54:33;6.20;;;2.20;;
51146;SDS011;37207;53.060;18.726;2023-02-02T16:57:00;3.10;;;2.10;;
51146;SDS011;37207;53.060;18.726;2023-02-02T16:59:29;4.50;;;1.60;;
51146;SDS011;37207;53.060;18.726;2023-02-02T17:04:57;1.60;;;0.90;;
51146;SDS011;37207;53.060;18.726;2023-02-02T17:07:47;3.90;;;1.20;;
51146;SDS011;37207;53.060;18.726;2023-02-02T17:12:44;3.00;;;1.80;;
51146;SDS011;37207;53.060;18.726;2023-02-02T17:17:44;2.60;;;1.90;;
51146;SDS011;37207;53.060;18.726;2023-02-02T17:20:15;5.00;;;2.00;;
51146;SDS011;37207;53.060;18.726;2023-02-02T17:22:44;5.00;;;3.00;;
51146;SDS011;37207;53.060;18.726;2023-02-02T17:25:18;4.90;;;2.50;;
51146;SDS011;37207;53.060;18.726;2023-02-02T17:27:48;4.50;;;3.00;;
51146;SDS011;37207;53.060;18.726;2023-02-02T17:30:16;3.50;;;2.40;;
51146;SDS011;37207;53.060;18.726;2023-02-02T17:32:44;5.20;;;4.60;;
51146;SDS011;37207;53.060;18.726;2023-02-02T17:35:18;3.10;;;2.10;;
51146;SDS011;37207;53.060;18.726;2023-02-02T17:37:48;3.80;;;2.70;;
51146;SDS011;37207;53.060;18.726;2023-02-02T17:40:15;3.00;;;2.00;;
51146;SDS011;37207;53.060;18.726;2023-02-02T17:42:44;4.80;;;2.20;;
51146;SDS011;37207;53.060;18.726;2023-02-02T17:45:17;3.70;;;1.70;;
51146;SDS011;37207;53.060;18.726;2023-02-02T17:47:46;6.90;;;2.30;;
51146;SDS011;37207;53.060;18.726;2023-02-02T17:50:13;5.80;;;2.10;;
51146;SDS011;37207;53.060;18.726;2023-02-02T17:52:40;4.40;;;2.60;;
51146;SDS011;37207;53.060;18.726;2023-02-02T17:57:57;4.10;;;2.20;;